Terminal Aerodrome Forecast
Issued by NWS

Home | Current Version | Previous Version | Text Only | Print | Product List | Glossary On
Versions: 1 2 3 4 5 6 7 8 9 10 11 12 13 14
000
FTUS43 KICT 261130
TAFCNU
TAF
KCNU 261130Z 2612/2712 18007KT P6SM OVC070
      TEMPO 2614/2616 4SM -SN OVC020
     FM261800 18009KT P6SM BKN080
     FM262200 15006KT P6SM SCT080 BKN200
     FM270300 12005KT P6SM SCT200=

USA.gov is the U.S. government's official web portal to all federal, state and local government web resources and services.